KBED/BED METAR and TAF weather

Enter ICAO airport designator
Station Type Date Time Source
KBED METAR 2018/06/25 16:56 UTC NOAA

KBED 251656Z 07009KT 10SM SCT046 SCT060 22/15 A2995 RMK AO2 SLP153 T02170150


Station Type Date Time Source
KBED Decoded METAR 2018/06/25 16:56 UTC NOAA

BEDFORD HANSCOM FIELD, MA, United States (KBED) 42-28N 071-18W 50M
Jun 25, 2018 - 12:56 PM EDT / 2018.06.25 1656 UTC
Wind: from the ENE (070 degrees) at 10 MPH (9 KT):0
Visibility: 10 mile(s):0
Sky conditions: partly cloudy
Temperature: 71.1 F (21.7 C)
Dew Point: 59.0 F (15.0 C)
Relative Humidity: 65%
Pressure (altimeter): 29.95 in. Hg (1014 hPa)
ob: KBED 251656Z 07009KT 10SM SCT046 SCT060 22/15 A2995 RMK AO2 SLP153 T02170150
cycle: 17

Station Type Date Time Source
KBED TAF 2018/06/25 15:22 UTC NOAA

TAF
AMD KBED 251520Z 2515/2612 36012G20KT P6SM BKN035
FM251700 01008KT P6SM SCT050
FM260000 33005KT P6SM FEW200
FM260900 00000KT P6SM SKC


Example: see airport list